Time;durP1;ratioP1;P1;durP2;ratioP2;P2;SDS_P1;SDS_P2;PMS_P1;PMS_P2;Temp;Humidity;BMP_temperature;BMP_pressure;BME280_temperature;BME280_humidity;BME280_pressure;Samples;Min_cycle;Max_cycle;Signal;HPM_P1;HPM_P2
2023/03/16 00:00:43;;;;;;;9.57;4.97;;;;;;;3.51;91.17;101727.16;5091689;28;20060;-73
2023/03/16 00:03:17;;;;;;;9.82;4.95;;;;;;;3.54;91.64;101730.50;5090920;28;20042;-71
2023/03/16 00:05:46;;;;;;;11.23;6.28;;;;;;;3.52;91.05;101712.19;5091011;28;20241;-71
2023/03/16 00:08:13;;;;;;;8.63;4.72;;;;;;;3.59;91.16;101715.97;5071421;28;20119;-71
2023/03/16 00:10:38;;;;;;;11.95;5.28;;;;;;;3.62;91.91;101717.53;5091141;28;20016;-71
2023/03/16 00:13:03;;;;;;;10.25;5.05;;;;;;;3.64;91.96;101718.19;5090851;28;20042;-72
2023/03/16 00:15:29;;;;;;;11.20;5.57;;;;;;;3.62;91.59;101702.53;5090943;28;20063;-71
2023/03/16 00:17:54;;;;;;;11.40;5.88;;;;;;;3.67;91.75;101712.69;5090661;28;20032;-71
2023/03/16 00:20:21;;;;;;;11.68;5.63;;;;;;;3.70;92.71;101710.63;5090416;28;20060;-71
2023/03/16 00:22:47;;;;;;;10.35;5.35;;;;;;;3.72;92.33;101719.25;5090476;28;20075;-71
2023/03/16 00:25:13;;;;;;;10.65;4.97;;;;;;;3.74;92.02;101716.47;5090473;28;20059;-71
2023/03/16 00:27:40;;;;;;;13.30;5.80;;;;;;;3.75;92.35;101702.31;5090469;28;20054;-71
2023/03/16 00:30:06;;;;;;;13.45;5.55;;;;;;;3.73;92.86;101699.81;5089045;28;20027;-71
2023/03/16 00:32:34;;;;;;;11.25;5.40;;;;;;;3.78;91.81;101698.59;5090522;28;20028;-71
2023/03/16 00:35:01;;;;;;;10.38;5.05;;;;;;;3.79;92.52;101694.97;5090322;28;20028;-73
2023/03/16 00:37:27;;;;;;;8.95;4.75;;;;;;;3.78;92.60;101695.94;5090216;28;20390;-71
2023/03/16 00:39:55;;;;;;;12.75;5.45;;;;;;;3.82;91.54;101700.81;5090267;28;20157;-71
2023/03/16 00:42:26;;;;;;;12.50;5.18;;;;;;;3.73;92.84;101681.34;5090081;28;20024;-71
2023/03/16 00:44:56;;;;;;;9.75;5.80;;;;;;;3.82;92.29;101684.97;5090112;28;20028;-71
2023/03/16 00:47:30;;;;;;;9.82;4.70;;;;;;;3.83;92.45;101683.19;5090073;28;20040;-71
2023/03/16 00:49:56;;;;;;;8.63;4.75;;;;;;;3.82;92.67;101679.69;5090260;28;20471;-64
2023/03/16 00:52:22;;;;;;;11.10;4.82;;;;;;;3.86;92.98;101685.56;5090107;28;20043;-65
2023/03/16 00:54:48;;;;;;;9.82;4.47;;;;;;;3.86;92.58;101673.19;5089894;28;20446;-64
2023/03/16 00:57:17;;;;;;;11.43;5.13;;;;;;;3.87;92.71;101674.84;5089840;28;20068;-65
2023/03/16 00:59:44;;;;;;;9.98;5.60;;;;;;;3.86;93.43;101670.56;5089945;28;20085;-65
2023/03/16 01:02:10;;;;;;;8.73;4.50;;;;;;;3.87;92.93;101668.75;5090079;28;20032;-64
2023/03/16 01:04:36;;;;;;;9.60;4.90;;;;;;;3.86;93.58;101662.66;5089859;28;20060;-66
2023/03/16 01:07:11;;;;;;;9.45;4.72;;;;;;;3.87;93.01;101666.94;5089857;28;20032;-64
2023/03/16 01:09:38;;;;;;;8.18;4.20;;;;;;;3.87;93.27;101658.19;5069435;28;20109;-64
2023/03/16 01:12:08;;;;;;;12.43;5.18;;;;;;;3.88;93.50;101650.16;5089658;28;20102;-65
2023/03/16 01:14:34;;;;;;;10.10;4.78;;;;;;;3.89;92.81;101653.63;5089734;28;20076;-64
2023/03/16 01:17:01;;;;;;;10.32;4.55;;;;;;;3.90;93.70;101648.22;5089545;28;20123;-65
2023/03/16 01:19:27;;;;;;;10.80;4.80;;;;;;;3.88;93.36;101634.31;5089467;28;20414;-64
2023/03/16 01:21:53;;;;;;;10.52;4.85;;;;;;;3.88;94.13;101636.13;5089410;28;20768;-65
2023/03/16 01:24:18;;;;;;;10.02;4.68;;;;;;;3.83;92.85;101631.25;5089455;28;20039;-64
2023/03/16 01:26:43;;;;;;;9.70;4.63;;;;;;;3.87;93.44;101635.28;5089446;28;20032;-65
2023/03/16 01:29:09;;;;;;;10.23;4.85;;;;;;;3.85;93.72;101637.25;5089376;28;20081;-65
2023/03/16 01:31:35;;;;;;;8.90;4.47;;;;;;;3.81;93.21;101633.19;5089191;28;20046;-64
2023/03/16 01:34:02;;;;;;;10.88;5.82;;;;;;;3.79;93.12;101621.91;5089356;28;20046;-64
2023/03/16 01:36:28;;;;;;;10.65;4.57;;;;;;;3.75;93.94;101620.53;5089226;28;20034;-64
2023/03/16 01:38:54;;;;;;;9.85;4.68;;;;;;;3.74;93.98;101617.03;5089171;28;20036;-65
2023/03/16 01:41:20;;;;;;;11.02;5.40;;;;;;;3.77;94.55;101610.66;5089310;28;20031;-65
2023/03/16 01:43:46;;;;;;;9.25;5.05;;;;;;;3.79;93.54;101610.53;5078617;28;20411;-64
2023/03/16 01:46:20;;;;;;;10.10;4.88;;;;;;;3.80;93.36;101612.19;5069865;28;20043;-65
2023/03/16 01:49:11;;;;;;;10.50;4.95;;;;;;;3.79;94.12;101607.91;5089081;28;20027;-64
2023/03/16 01:51:55;;;;;;;12.63;5.65;;;;;;;3.77;94.10;101607.19;5089635;28;20016;-64
2023/03/16 01:54:32;;;;;;;9.18;4.38;;;;;;;3.78;94.43;101611.53;5089045;28;20391;-64
2023/03/16 01:57:20;;;;;;;8.85;5.22;;;;;;;3.79;94.25;101605.25;5089037;28;20032;-64
2023/03/16 02:00:09;;;;;;;13.38;5.10;;;;;;;3.79;94.34;101607.91;5069700;28;20037;-65
2023/03/16 02:02:38;;;;;;;16.90;6.32;;;;;;;3.80;94.39;101606.91;5069507;28;20457;-65
2023/03/16 02:05:15;;;;;;;13.43;5.55;;;;;;;3.82;94.57;101597.06;5069646;28;20059;-65
2023/03/16 02:07:48;;;;;;;10.13;4.75;;;;;;;3.83;94.10;101590.84;5089092;28;20047;-65
2023/03/16 02:10:15;;;;;;;10.63;5.05;;;;;;;3.85;94.35;101595.03;5089041;28;20028;-64
2023/03/16 02:12:41;;;;;;;11.02;4.80;;;;;;;3.88;94.30;101583.38;5069573;28;20373;-64
2023/03/16 02:15:08;;;;;;;9.95;4.45;;;;;;;3.85;93.83;101571.28;5069601;28;20062;-64
2023/03/16 02:17:35;;;;;;;8.98;5.10;;;;;;;3.88;93.71;101584.19;5069449;28;20412;-65
2023/03/16 02:20:18;;;;;;;12.57;5.57;;;;;;;3.90;93.59;101579.63;5069444;28;20049;-65
2023/03/16 02:22:47;;;;;;;9.02;4.80;;;;;;;3.89;93.18;101574.47;5072837;28;20060;-64
2023/03/16 02:25:15;;;;;;;8.73;4.35;;;;;;;3.88;93.05;101571.00;5073587;28;20035;-65
2023/03/16 02:27:47;;;;;;;8.30;4.75;;;;;;;3.88;93.76;101570.16;5073612;28;20020;-64
2023/03/16 02:30:13;;;;;;;;;;;;;;;3.90;92.83;101557.66;5074056;28;20471;-64
2023/03/16 02:32:40;;;;;;;9.10;4.70;;;;;;;3.88;94.36;101563.09;5073508;28;19916;-64
2023/03/16 02:35:06;;;;;;;10.27;5.78;;;;;;;3.88;93.74;101562.25;5073210;28;20060;-64
2023/03/16 02:37:32;;;;;;;9.25;4.40;;;;;;;3.90;94.47;101573.47;5073271;28;20029;-64
2023/03/16 02:39:59;;;;;;;9.43;4.80;;;;;;;3.88;94.74;101576.28;5073201;28;20383;-64
2023/03/16 02:42:26;;;;;;;12.68;5.88;;;;;;;3.88;96.15;101575.44;5073192;28;20098;-64
2023/03/16 02:44:57;;;;;;;14.82;5.18;;;;;;;3.87;96.16;101571.13;5092504;28;20040;-65
2023/03/16 02:47:40;;;;;;;12.27;4.95;;;;;;;3.80;97.21;101564.69;5092595;28;20059;-65
2023/03/16 02:50:07;;;;;;;9.00;4.18;;;;;;;3.82;97.90;101578.59;5092478;28;20053;-64
2023/03/16 02:52:34;;;;;;;10.82;4.50;;;;;;;3.81;99.22;101576.94;5072907;28;20036;-65
2023/03/16 02:54:59;;;;;;;12.10;4.05;;;;;;;3.79;99.31;101579.72;5092359;28;20039;-64
2023/03/16 02:57:25;;;;;;;11.95;4.78;;;;;;;3.80;98.79;101576.13;5092208;28;20020;-64
2023/03/16 02:59:51;;;;;;;5.63;3.58;;;;;;;3.79;99.83;101578.88;5092265;28;20039;-64
2023/03/16 03:02:16;;;;;;;8.75;4.32;;;;;;;3.77;99.88;101570.25;5092157;28;20384;-64
2023/03/16 03:04:45;;;;;;;9.75;4.10;;;;;;;3.78;100.00;101569.31;5092185;28;20024;-64
2023/03/16 03:07:13;;;;;;;11.50;4.15;;;;;;;3.77;100.00;101571.09;5092137;28;20027;-64
2023/03/16 03:09:41;;;;;;;9.90;4.95;;;;;;;3.77;99.76;101565.81;5092020;28;20075;-65
2023/03/16 03:12:08;;;;;;;12.65;4.57;;;;;;;3.73;100.00;101559.16;5092359;28;20031;-64
2023/03/16 03:14:36;;;;;;;10.48;4.78;;;;;;;3.77;99.83;101565.81;5091891;28;20081;-64
2023/03/16 03:17:03;;;;;;;8.98;4.38;;;;;;;3.78;99.73;101564.03;5091837;28;20032;-65
2023/03/16 03:19:28;;;;;;;8.27;4.20;;;;;;;3.71;99.53;101542.63;5091699;28;20060;-64
2023/03/16 03:21:55;;;;;;;8.50;4.15;;;;;;;3.78;99.32;101553.47;5091694;28;20552;-65
2023/03/16 03:24:21;;;;;;;11.10;4.43;;;;;;;3.77;99.38;101549.16;5091828;28;20020;-64
2023/03/16 03:26:47;;;;;;;9.95;4.30;;;;;;;3.78;100.00;101553.47;5091747;28;20035;-65
2023/03/16 03:29:12;;;;;;;10.45;5.38;;;;;;;3.77;99.56;101549.97;5091546;28;20028;-65
2023/03/16 03:31:38;;;;;;;8.27;4.55;;;;;;;3.79;99.97;101549.84;5091755;28;20031;-65
2023/03/16 03:34:05;;;;;;;9.18;4.35;;;;;;;3.78;99.05;101541.13;5090799;28;20491;-65
2023/03/16 03:36:31;;;;;;;10.45;4.20;;;;;;;3.77;98.93;101542.06;5091546;28;20115;-64
2023/03/16 03:38:57;;;;;;;10.57;4.82;;;;;;;3.69;99.45;101532.22;5091513;28;20035;-65
2023/03/16 03:41:22;;;;;;;8.90;4.00;;;;;;;3.76;99.16;101531.66;5091500;28;20058;-64
2023/03/16 03:43:48;;;;;;;12.73;5.15;;;;;;;3.76;98.57;101529.84;5091200;28;20115;-64
2023/03/16 03:46:13;;;;;;;9.65;4.32;;;;;;;3.69;98.98;101523.44;5091303;28;20056;-64
2023/03/16 03:48:38;;;;;;;8.88;4.60;;;;;;;3.73;99.17;101533.59;5091273;28;20058;-65
2023/03/16 03:51:05;;;;;;;8.98;4.20;;;;;;;3.73;99.76;101533.59;5091142;28;20032;-64
2023/03/16 03:53:31;;;;;;;16.13;5.65;;;;;;;3.72;99.63;101525.81;5091172;28;20583;-65
2023/03/16 03:55:56;;;;;;;8.63;4.28;;;;;;;3.66;100.00;101524.53;5091594;28;20036;-65
2023/03/16 03:58:22;;;;;;;11.68;5.32;;;;;;;3.68;100.00;101521.78;5090987;28;20391;-64
2023/03/16 04:00:47;;;;;;;10.13;5.05;;;;;;;3.70;99.21;101519.84;5091054;28;20055;-65
2023/03/16 04:03:12;;;;;;;9.73;3.72;;;;;;;3.72;100.00;101529.31;5091014;28;20103;-65
2023/03/16 04:05:38;;;;;;;10.02;4.15;;;;;;;3.72;100.00;101524.03;5090790;28;20028;-65
2023/03/16 04:08:04;;;;;;;8.65;4.20;;;;;;;3.73;100.00;101519.56;5071289;28;20380;-64
2023/03/16 04:10:30;;;;;;;10.57;4.63;;;;;;;3.72;100.00;101518.75;5071579;28;20028;-65
2023/03/16 04:12:56;;;;;;;7.38;4.13;;;;;;;3.73;99.35;101512.50;5071427;28;20024;-65
2023/03/16 04:15:21;;;;;;;10.23;4.28;;;;;;;3.74;99.51;101511.50;5071323;28;20130;-71
2023/03/16 04:17:48;;;;;;;7.22;4.03;;;;;;;3.74;98.96;101518.59;5071383;28;20154;-71
2023/03/16 04:20:18;;;;;;;11.23;4.13;;;;;;;3.74;99.37;101518.59;5090460;28;20056;-71
2023/03/16 04:22:44;;;;;;;12.88;4.18;;;;;;;3.76;98.97;101521.13;5090707;28;20026;-71
2023/03/16 04:25:11;;;;;;;7.95;4.53;;;;;;;3.78;99.64;101524.47;5090636;28;20032;-71
2023/03/16 04:27:37;;;;;;;7.55;3.88;;;;;;;3.81;99.62;101518.91;5090402;28;20521;-71
2023/03/16 04:30:10;;;;;;;9.10;4.68;;;;;;;3.78;99.26;101509.47;5090487;28;20040;-71
2023/03/16 04:32:36;;;;;;;7.60;4.00;;;;;;;3.81;98.56;101514.47;5090444;28;20525;-71
2023/03/16 04:35:01;;;;;;;11.02;5.57;;;;;;;3.81;98.66;101511.00;5090369;28;20032;-71
2023/03/16 04:37:26;;;;;;;11.60;5.25;;;;;;;3.80;98.95;101509.31;5090176;28;20031;-71
2023/03/16 04:39:52;;;;;;;9.85;4.07;;;;;;;3.82;98.21;101508.19;5090308;28;20028;-71
2023/03/16 04:42:17;;;;;;;6.43;4.07;;;;;;;3.84;98.09;101502.78;5090725;28;20054;-71
2023/03/16 04:44:45;;;;;;;9.68;4.68;;;;;;;3.85;98.92;101512.38;5090146;28;20050;-71
2023/03/16 04:47:11;;;;;;;9.18;4.57;;;;;;;3.86;98.34;101508.78;5090317;28;20031;-71
2023/03/16 04:49:36;;;;;;;12.70;4.65;;;;;;;3.87;98.85;101507.78;5090481;28;20036;-71
2023/03/16 04:52:03;;;;;;;7.97;4.35;;;;;;;3.87;98.59;101505.16;5089980;28;20356;-71
2023/03/16 04:54:29;;;;;;;7.95;4.38;;;;;;;3.89;98.06;101513.78;5089976;28;20089;-71
2023/03/16 04:56:54;;;;;;;10.15;4.38;;;;;;;3.85;98.34;101497.41;5089735;28;20422;-71
2023/03/16 04:59:19;;;;;;;7.63;3.80;;;;;;;3.90;98.83;101507.50;5089927;28;20166;-71
2023/03/16 05:01:45;;;;;;;9.68;4.65;;;;;;;3.90;97.93;101508.38;5089874;28;20062;-71
2023/03/16 05:04:11;;;;;;;6.53;4.03;;;;;;;3.91;97.87;101504.75;5089901;28;20109;-71
2023/03/16 05:06:36;;;;;;;10.57;4.50;;;;;;;3.91;97.80;101499.47;5089836;28;20035;-71
2023/03/16 05:09:04;;;;;;;6.78;4.10;;;;;;;3.92;98.35;101503.78;5084603;28;20043;-71
2023/03/16 05:11:30;;;;;;;13.85;5.57;;;;;;;3.90;99.20;101492.53;5070256;28;20035;-71
2023/03/16 05:13:55;;;;;;;9.30;3.70;;;;;;;3.91;98.86;101491.56;5070068;28;21124;-71
2023/03/16 05:16:21;;;;;;;9.18;3.88;;;;;;;3.86;99.40;101480.56;5070245;28;20028;-71
2023/03/16 05:18:46;;;;;;;10.25;5.30;;;;;;;3.93;100.00;101483.53;5070051;28;20024;-71
2023/03/16 05:21:11;;;;;;;8.93;4.45;;;;;;;3.87;100.00;101476.13;5070214;28;20072;-72
2023/03/16 05:23:37;;;;;;;8.70;3.75;;;;;;;3.93;99.83;101480.88;5069933;28;20483;-71
2023/03/16 05:26:02;;;;;;;8.23;4.55;;;;;;;3.91;99.54;101482.81;5070044;28;20034;-71
2023/03/16 05:28:28;;;;;;;11.57;4.22;;;;;;;3.93;100.00;101476.44;5070215;28;20021;-71
2023/03/16 05:30:55;;;;;;;12.35;5.88;;;;;;;3.95;100.00;101478.91;5070027;28;20111;-71
2023/03/16 05:33:20;;;;;;;10.38;5.20;;;;;;;3.97;99.96;101486.69;5070071;28;20025;-71
2023/03/16 05:35:46;;;;;;;11.45;4.10;;;;;;;3.97;99.86;101478.78;5069962;28;20032;-71
2023/03/16 05:38:11;;;;;;;10.13;4.53;;;;;;;3.98;99.99;101473.34;5069836;28;20074;-71
2023/03/16 05:40:37;;;;;;;9.80;5.00;;;;;;;3.98;99.60;101473.34;5069723;28;20045;-71
2023/03/16 05:43:03;;;;;;;10.77;4.88;;;;;;;4.01;99.74;101478.38;5078743;28;20375;-71
2023/03/16 05:45:29;;;;;;;10.07;4.40;;;;;;;4.02;100.00;101472.13;5089282;28;20043;-71
2023/03/16 05:47:54;;;;;;;8.63;3.92;;;;;;;4.05;99.33;101471.00;5089066;28;20028;-72
2023/03/16 05:50:20;;;;;;;9.98;4.13;;;;;;;4.06;99.08;101478.81;5089119;28;20143;-71
2023/03/16 05:52:46;;;;;;;8.65;4.22;;;;;;;4.07;99.04;101471.72;5089061;28;20034;-71
2023/03/16 05:55:14;;;;;;;8.50;4.13;;;;;;;4.07;99.28;101474.34;5089040;28;20030;-71
2023/03/16 05:57:40;;;;;;;8.27;3.78;;;;;;;4.10;98.96;101472.25;5088589;28;20032;-71
2023/03/16 06:00:13;;;;;;;10.88;5.05;;;;;;;4.11;98.18;101465.16;5088913;28;20566;-71
2023/03/16 06:02:39;;;;;;;7.13;3.90;;;;;;;4.12;98.36;101465.03;5069537;28;20506;-71
2023/03/16 06:05:05;;;;;;;9.32;4.60;;;;;;;4.14;98.68;101464.91;5086443;28;20032;-71
2023/03/16 06:07:30;;;;;;;8.32;4.65;;;;;;;4.16;98.83;101470.84;5088823;28;20081;-72
2023/03/16 06:09:55;;;;;;;11.00;4.85;;;;;;;4.17;98.64;101461.97;5088792;28;20062;-71
2023/03/16 06:12:20;;;;;;;11.57;5.35;;;;;;;4.17;98.72;101465.44;5088876;28;20043;-71
2023/03/16 06:14:46;;;;;;;12.50;4.40;;;;;;;4.18;99.30;101461.81;5088787;28;20043;-71
2023/03/16 06:17:11;;;;;;;12.38;4.40;;;;;;;4.07;99.04;101442.69;5088690;28;20410;-71
2023/03/16 06:19:37;;;;;;;8.10;4.03;;;;;;;4.17;99.80;101460.16;5088577;28;20277;-71
2023/03/16 06:22:02;;;;;;;11.82;4.18;;;;;;;4.20;98.80;101463.50;5088589;28;20040;-71
2023/03/16 06:24:27;;;;;;;10.00;4.47;;;;;;;4.17;99.45;101462.81;5088596;28;20028;-71
2023/03/16 06:26:53;;;;;;;7.00;3.72;;;;;;;4.22;98.18;101469.47;5088709;28;20077;-71
2023/03/16 06:29:18;;;;;;;9.45;4.45;;;;;;;4.23;98.39;101457.94;5088613;28;20035;-71
2023/03/16 06:31:43;;;;;;;9.57;4.60;;;;;;;4.22;99.63;101466.81;5088819;28;20072;-71
2023/03/16 06:34:09;;;;;;;6.60;3.50;;;;;;;4.21;99.03;101463.34;5088738;28;20056;-71
2023/03/16 06:36:34;;;;;;;8.35;4.00;;;;;;;4.24;98.42;101463.06;5087568;28;20036;-71
2023/03/16 06:38:59;;;;;;;9.40;4.35;;;;;;;4.30;98.15;101466.97;5069730;28;20024;-71
2023/03/16 06:41:25;;;;;;;8.90;4.20;;;;;;;4.28;98.37;101453.91;5069184;28;20036;-71
2023/03/16 06:43:50;;;;;;;8.60;4.90;;;;;;;4.36;98.73;101472.53;5080539;28;20031;-71
2023/03/16 06:46:16;;;;;;;9.65;3.90;;;;;;;4.39;100.00;101466.94;5088566;28;20028;-65
2023/03/16 06:48:41;;;;;;;9.70;3.88;;;;;;;4.43;99.25;101467.53;5087171;28;20110;-65
2023/03/16 06:51:06;;;;;;;8.75;4.22;;;;;;;4.47;99.69;101468.06;5088467;28;20040;-65
2023/03/16 06:53:32;;;;;;;7.75;3.65;;;;;;;4.50;99.95;101463.31;5088320;28;20040;-65
2023/03/16 06:55:57;;;;;;;12.50;4.80;;;;;;;4.54;100.00;101472.63;5088408;28;20063;-65
2023/03/16 06:58:23;;;;;;;9.65;4.88;;;;;;;4.56;99.87;101460.13;5088197;28;20032;-64
2023/03/16 07:00:48;;;;;;;9.93;4.70;;;;;;;4.58;99.74;101470.53;5088422;28;20075;-64
2023/03/16 07:03:13;;;;;;;9.07;4.80;;;;;;;4.60;100.00;101463.31;5088589;28;20020;-65
2023/03/16 07:05:39;;;;;;;10.93;4.28;;;;;;;4.59;100.00;101454.56;5088150;28;20032;-65
2023/03/16 07:08:04;;;;;;;11.60;3.97;;;;;;;4.63;100.00;101452.44;5088840;28;20016;-65
2023/03/16 07:10:30;;;;;;;9.60;4.45;;;;;;;4.65;100.00;101447.88;5092231;28;20035;-65
2023/03/16 07:12:55;;;;;;;8.00;5.03;;;;;;;4.69;100.00;101445.75;5091932;28;20467;-64
2023/03/16 07:15:24;;;;;;;11.88;4.40;;;;;;;4.73;100.00;101444.50;5092138;28;20043;-65
2023/03/16 07:17:51;;;;;;;7.03;4.20;;;;;;;4.80;100.00;101445.59;5091790;28;20119;-65
2023/03/16 07:20:17;;;;;;;6.05;3.53;;;;;;;4.89;100.00;101444.72;5091666;28;20105;-65
2023/03/16 07:22:42;;;;;;;11.00;3.92;;;;;;;4.95;100.00;101440.66;5091582;28;20456;-64
2023/03/16 07:25:10;;;;;;;7.97;4.13;;;;;;;5.07;100.00;101442.16;5090310;28;20020;-65
2023/03/16 07:27:35;;;;;;;8.95;4.63;;;;;;;5.12;99.36;101447.84;5073542;28;20643;-72
2023/03/16 07:30:00;;;;;;;11.65;4.28;;;;;;;5.14;98.63;101443.25;5074772;28;20036;-73
2023/03/16 07:32:26;;;;;;;9.45;4.10;;;;;;;5.18;98.89;101449.88;5073056;28;20040;-70
2023/03/16 07:34:52;;;;;;;6.78;3.53;;;;;;;5.21;98.02;101441.69;5075653;28;20020;-70
2023/03/16 07:37:17;;;;;;;11.40;4.68;;;;;;;5.23;99.28;101445.00;5073580;28;20115;-71
2023/03/16 07:39:43;;;;;;;10.27;4.53;;;;;;;5.25;99.22;101445.69;5074775;28;20028;-71
2023/03/16 07:42:08;;;;;;;8.45;4.22;;;;;;;5.32;98.87;101445.09;5073713;28;20143;-73
2023/03/16 07:44:34;;;;;;;8.30;4.28;;;;;;;5.33;98.97;101444.13;5074624;28;20111;-73
2023/03/16 07:47:00;;;;;;;7.45;4.18;;;;;;;5.35;99.67;101442.16;5074333;28;20470;-72
2023/03/16 07:49:26;;;;;;;12.00;4.25;;;;;;;5.38;99.46;101442.69;5074732;28;20028;-70
2023/03/16 07:51:51;;;;;;;9.75;4.20;;;;;;;5.38;99.91;101441.88;5075341;28;20061;-70
2023/03/16 07:54:17;;;;;;;10.07;4.20;;;;;;;5.37;98.16;101427.81;5071656;28;20041;-71
2023/03/16 07:56:42;;;;;;;5.72;3.45;;;;;;;5.39;97.69;101430.28;5071384;28;20054;-72
2023/03/16 07:59:08;;;;;;;10.95;5.10;;;;;;;5.40;98.75;101430.16;5071609;28;20067;-72
2023/03/16 08:01:33;;;;;;;8.98;4.15;;;;;;;5.41;99.04;101434.44;5071628;28;20037;-72
2023/03/16 08:04:00;;;;;;;8.07;3.72;;;;;;;5.42;98.59;101428.19;5071653;28;20034;-72
2023/03/16 08:06:25;;;;;;;7.18;3.50;;;;;;;5.48;97.86;101432.88;5071485;28;20028;-72
2023/03/16 08:08:51;;;;;;;8.82;3.80;;;;;;;5.51;96.68;101437.06;5088128;28;20361;-71
2023/03/16 08:11:22;;;;;;;7.90;4.00;;;;;;;5.53;96.94;101432.44;5090883;28;20084;-71
2023/03/16 08:13:55;;;;;;;10.07;5.55;;;;;;;5.58;96.20;101424.91;5090800;28;20548;-70
2023/03/16 08:16:22;;;;;;;6.65;3.60;;;;;;;5.57;96.05;101420.56;5090811;28;20093;-72
2023/03/16 08:18:49;;;;;;;7.78;4.13;;;;;;;5.68;95.54;101433.56;5089744;28;20024;-71
2023/03/16 08:21:16;;;;;;;7.20;3.22;;;;;;;5.67;94.56;101421.34;5074863;28;20048;-71
2023/03/16 08:23:47;;;;;;;12.23;4.75;;;;;;;5.78;94.91;101427.38;5090859;28;20062;-71
2023/03/16 08:26:17;;;;;;;8.68;3.42;;;;;;;5.84;95.62;101424.97;5090728;28;20035;-71
2023/03/16 08:28:46;;;;;;;7.60;3.47;;;;;;;5.95;94.82;101423.94;5079473;28;20024;-71
2023/03/16 08:31:14;;;;;;;8.43;3.60;;;;;;;6.09;93.00;101428.69;5071022;28;20409;-71
2023/03/16 08:33:45;;;;;;;10.10;3.67;;;;;;;6.22;94.39;101425.66;5088732;28;20111;-71
2023/03/16 08:36:14;;;;;;;6.70;3.47;;;;;;;6.29;92.92;101421.41;5090592;28;20028;-71
2023/03/16 08:38:40;;;;;;;7.45;3.47;;;;;;;6.31;91.84;101419.44;5090419;28;20475;-72
2023/03/16 08:41:06;;;;;;;7.82;3.72;;;;;;;6.34;91.41;101436.81;5090500;28;20085;-71
2023/03/16 08:43:32;;;;;;;7.10;3.88;;;;;;;6.31;91.52;101424.75;5082098;28;20032;-72
2023/03/16 08:45:58;;;;;;;8.45;3.90;;;;;;;6.34;93.30;101426.22;5072552;28;20055;-72
2023/03/16 08:48:24;;;;;;;9.07;3.33;;;;;;;6.44;91.30;101423.47;5090364;28;20032;-72
2023/03/16 08:50:50;;;;;;;5.57;3.20;;;;;;;6.51;91.40;101433.31;5090225;28;20024;-72
2023/03/16 08:53:17;;;;;;;6.72;3.10;;;;;;;6.54;90.36;101425.03;5089606;28;20036;-73
2023/03/16 08:55:43;;;;;;;10.63;3.60;;;;;;;6.55;89.13;101429.38;5070765;28;20035;-72
2023/03/16 08:58:10;;;;;;;10.00;3.45;;;;;;;6.62;92.19;101418.97;5070805;28;20163;-72
2023/03/16 09:00:37;;;;;;;7.75;3.92;;;;;;;6.78;92.70;101426.16;5078971;28;20070;-72
2023/03/16 09:03:03;;;;;;;6.60;2.78;;;;;;;6.84;90.04;101420.25;5090188;28;20032;-72
2023/03/16 09:05:29;;;;;;;6.50;2.80;;;;;;;6.93;89.13;101413.16;5090025;28;20028;-72
2023/03/16 09:07:55;;;;;;;6.68;3.63;;;;;;;6.96;88.16;101407.53;5090086;28;20529;-73
2023/03/16 09:10:21;;;;;;;7.28;4.05;;;;;;;6.96;87.94;101403.06;5089870;28;20038;-72
2023/03/16 09:12:49;;;;;;;4.30;2.83;;;;;;;7.00;87.14;101406.25;5084612;28;20024;-72
2023/03/16 09:15:15;;;;;;;8.68;3.33;;;;;;;7.03;86.83;101401.44;5089790;28;20488;-72
2023/03/16 09:17:41;;;;;;;7.43;3.30;;;;;;;7.10;86.56;101403.44;5088990;28;20046;-73
2023/03/16 09:20:09;;;;;;;7.45;2.90;;;;;;;7.14;86.01;101400.31;5089160;28;20044;-72
2023/03/16 09:22:35;;;;;;;8.95;4.30;;;;;;;7.17;83.59;101407.13;5089640;28;20146;-72
2023/03/16 09:25:01;;;;;;;8.75;3.75;;;;;;;7.18;86.77;101400.84;5072552;28;20032;-73
2023/03/16 09:27:26;;;;;;;4.75;2.70;;;;;;;7.25;84.89;101402.66;5070358;28;20490;-72
2023/03/16 09:29:55;;;;;;;5.07;2.90;;;;;;;7.32;87.02;101396.72;5087050;28;20024;-72
2023/03/16 09:32:20;;;;;;;7.10;3.28;;;;;;;7.39;83.63;101397.75;5087556;28;20020;-73
2023/03/16 09:34:46;;;;;;;5.18;3.08;;;;;;;7.46;84.43;101399.56;5086767;28;20058;-72
2023/03/16 09:37:11;;;;;;;4.38;3.05;;;;;;;7.58;84.25;101391.31;5089162;28;20024;-72
2023/03/16 09:39:37;;;;;;;4.97;3.38;;;;;;;7.69;84.85;101389.16;5072018;28;21004;-73
2023/03/16 09:42:05;;;;;;;7.68;3.30;;;;;;;8.03;84.74;101390.84;5070029;28;20032;-73
2023/03/16 09:45:02;;;;;;;10.90;3.78;;;;;;;8.35;84.09;101394.47;5073089;28;20090;-73
2023/03/16 09:47:31;;;;;;;5.13;3.08;;;;;;;8.53;81.16;101395.13;5089354;28;20020;-73
2023/03/16 09:50:01;;;;;;;8.63;3.40;;;;;;;8.66;80.17;101380.47;5082565;28;20527;-72
2023/03/16 09:53:11;;;;;;;6.88;2.45;;;;;;;8.77;82.79;101382.75;5085056;28;20031;-72
2023/03/16 09:55:38;;;;;;;3.78;2.70;;;;;;;8.79;79.80;101394.06;5068850;28;20036;-72
2023/03/16 09:58:12;;;;;;;8.82;3.70;;;;;;;8.81;77.71;101385.91;5084091;28;20035;-72
2023/03/16 10:00:46;;;;;;;5.28;2.90;;;;;;;8.93;78.19;101392.50;5089238;28;20518;-72
2023/03/16 10:03:28;;;;;;;9.63;4.75;;;;;;;9.01;76.61;101381.81;5088967;28;20038;-73
2023/03/16 10:06:01;;;;;;;4.35;3.33;;;;;;;9.17;78.02;101376.44;5089144;28;20103;-72
2023/03/16 10:08:37;;;;;;;9.43;3.97;;;;;;;9.35;78.73;101367.34;5088973;28;20027;-72
2023/03/16 10:11:32;;;;;;;6.07;3.03;;;;;;;9.55;78.13;101363.22;5089059;28;20030;-73
2023/03/16 10:14:36;;;;;;;6.28;2.85;;;;;;;9.51;75.60;101361.94;5087701;28;20097;-72
2023/03/16 10:17:18;;;;;;;9.68;2.97;;;;;;;9.41;76.68;101364.00;5086580;28;20036;-73
2023/03/16 10:19:58;;;;;;;7.03;2.80;;;;;;;9.40;77.01;101357.00;5088904;28;20090;-72
2023/03/16 10:22:25;;;;;;;8.65;2.80;;;;;;;9.62;78.09;101350.03;5089045;28;20024;-73
2023/03/16 10:25:02;;;;;;;6.35;3.92;;;;;;;9.88;72.86;101352.31;5072684;28;20122;-72
2023/03/16 10:27:32;;;;;;;8.15;2.88;;;;;;;9.92;73.39;101350.13;5088809;28;20056;-72
2023/03/16 10:30:00;;;;;;;5.97;2.70;;;;;;;9.85;73.77;101339.34;5088846;28;20038;-72
2023/03/16 10:32:30;;;;;;;7.53;3.08;;;;;;;9.91;74.29;101351.97;5089083;28;20054;-73
2023/03/16 10:35:01;;;;;;;6.43;2.97;;;;;;;9.94;73.27;101353.44;5071000;28;20070;-72
2023/03/16 10:37:29;;;;;;;5.50;2.80;;;;;;;9.97;72.40;101343.25;5069448;28;20085;-73
2023/03/16 10:39:56;;;;;;;8.23;4.05;;;;;;;10.07;73.03;101349.16;5068342;28;20030;-73
2023/03/16 10:42:23;;;;;;;4.38;2.58;;;;;;;10.19;74.57;101340.69;5070872;28;20025;-73
2023/03/16 10:44:56;;;;;;;8.07;3.03;;;;;;;10.19;70.95;101340.69;5089241;28;20040;-73
2023/03/16 10:47:26;;;;;;;8.88;3.50;;;;;;;10.15;71.50;101340.25;5082437;28;20066;-72
2023/03/16 10:49:52;;;;;;;4.83;2.53;;;;;;;10.31;72.93;101337.44;5091120;28;20031;-73
2023/03/16 10:52:39;;;;;;;7.38;2.60;;;;;;;10.52;72.47;101325.22;5087149;28;20399;-73
2023/03/16 10:55:33;;;;;;;7.07;3.45;;;;;;;10.64;73.68;101323.75;5078111;28;20116;-73
2023/03/16 10:58:00;;;;;;;5.93;3.53;;;;;;;10.68;69.56;101329.53;5091544;28;20058;-73
2023/03/16 11:00:27;;;;;;;5.82;2.95;;;;;;;10.76;69.12;101318.75;5092419;28;20070;-72
2023/03/16 11:02:55;;;;;;;6.85;2.55;;;;;;;10.83;67.99;101326.84;5090545;28;20110;-72
2023/03/16 11:05:25;;;;;;;6.47;2.75;;;;;;;10.95;68.62;101317.31;5072832;28;20058;-72
2023/03/16 11:07:58;;;;;;;5.78;2.47;;;;;;;11.04;68.21;101318.06;5072752;28;20383;-72
2023/03/16 11:10:26;;;;;;;11.50;3.90;;;;;;;11.13;67.85;101315.09;5076586;28;20029;-72
2023/03/16 11:12:52;;;;;;;5.13;2.60;;;;;;;11.21;66.80;101303.44;5072793;28;20074;-72
2023/03/16 11:15:19;;;;;;;3.58;2.50;;;;;;;11.25;65.20;101307.41;5072696;28;20021;-72
2023/03/16 11:17:50;;;;;;;7.10;2.78;;;;;;;11.33;65.86;101307.28;5072570;28;20040;-73
2023/03/16 11:20:27;;;;;;;5.57;2.30;;;;;;;11.43;66.38;101300.81;5072335;28;20063;-73
2023/03/16 11:22:53;;;;;;;4.00;2.58;;;;;;;11.46;64.94;101303.91;5085697;28;20113;-73
2023/03/16 11:25:57;;;;;;;5.43;2.83;;;;;;;11.58;67.59;101288.19;5082130;28;20036;-72
2023/03/16 11:28:45;;;;;;;5.07;2.88;;;;;;;11.72;67.14;101286.47;5059857;28;20036;-73
2023/03/16 11:31:31;;;;;;;7.25;2.78;;;;;;;11.90;67.90;101283.34;5071829;28;20036;-73
2023/03/16 11:33:57;;;;;;;4.20;2.50;;;;;;;11.89;64.44;101279.00;5072499;28;20035;-73